createdAt,value
2023-01-28T00:01:15.308Z,3.83
2023-01-28T00:03:43.355Z,4.40
2023-01-28T00:06:15.348Z,4.05
2023-01-28T00:08:43.106Z,4.38
2023-01-28T00:11:11.874Z,4.18
2023-01-28T00:13:40.437Z,4.43
2023-01-28T00:16:12.820Z,4.60
2023-01-28T00:18:41.983Z,4.80
2023-01-28T00:21:12.796Z,4.53
2023-01-28T00:23:40.931Z,4.47
2023-01-28T00:26:19.455Z,4.78
2023-01-28T00:28:49.619Z,5.03
2023-01-28T00:31:24.659Z,4.65
2023-01-28T00:33:53.738Z,5.15
2023-01-28T00:36:29.536Z,5.30
2023-01-28T00:38:59.278Z,4.75
2023-01-28T00:41:30.439Z,5.20
2023-01-28T00:43:58.859Z,5.32
2023-01-28T00:46:30.586Z,5.20
2023-01-28T00:48:58.614Z,5.50
2023-01-28T00:51:25.386Z,5.15
2023-01-28T00:53:52.998Z,5.20
2023-01-28T00:56:20.031Z,6.00
2023-01-28T07:33:43.671Z,10.68
2023-01-28T08:03:01.631Z,9.35
2023-01-28T08:05:41.621Z,10.70
2023-01-28T08:08:10.274Z,7.60
2023-01-28T08:48:51.001Z,6.15
2023-01-28T09:02:30.665Z,7.07
2023-01-28T09:05:02.859Z,7.07
2023-01-28T09:10:11.793Z,6.95
2023-01-28T09:12:40.423Z,6.45
2023-01-28T09:18:02.410Z,6.75
2023-01-28T09:20:29.153Z,5.35
2023-01-28T09:22:56.409Z,8.45
2023-01-28T09:25:23.250Z,8.30
2023-01-28T09:27:49.852Z,7.15
2023-01-28T09:30:17.086Z,8.20
2023-01-28T09:32:44.450Z,7.47
2023-01-28T09:35:13.079Z,6.97
2023-01-28T09:37:39.539Z,7.38
2023-01-28T09:40:09.589Z,10.05
2023-01-28T09:42:52.387Z,10.68
2023-01-28T09:45:41.989Z,13.43
2023-01-28T09:51:00.522Z,12.70
2023-01-28T09:53:39.363Z,12.57
2023-01-28T09:56:14.888Z,12.38
2023-01-28T09:58:51.568Z,13.63
2023-01-28T10:01:53.723Z,11.57
2023-01-28T10:04:35.415Z,12.27
2023-01-28T10:07:11.846Z,11.30
2023-01-28T10:10:01.889Z,11.75
2023-01-28T10:12:42.099Z,14.18
2023-01-28T10:15:41.137Z,15.68
2023-01-28T10:18:17.999Z,15.02
2023-01-28T10:20:52.283Z,14.45
2023-01-28T10:23:32.139Z,15.52
2023-01-28T10:26:10.268Z,15.93
2023-01-28T10:28:40.375Z,14.93
2023-01-28T10:31:14.585Z,15.00
2023-01-28T10:33:47.695Z,17.05
2023-01-28T10:36:18.601Z,16.73
2023-01-28T10:38:48.608Z,19.13
2023-01-28T10:49:27.518Z,17.85
2023-01-28T10:51:53.971Z,17.60
2023-01-28T10:54:33.048Z,18.02
2023-01-28T10:57:03.650Z,16.85
2023-01-28T10:59:33.215Z,16.75
2023-01-28T11:02:03.692Z,17.00
2023-01-28T11:04:32.692Z,16.35
2023-01-28T11:07:02.068Z,16.38
2023-01-28T11:09:36.730Z,15.77
2023-01-28T11:12:19.471Z,16.40
2023-01-28T11:15:00.575Z,16.80
2023-01-28T11:17:30.570Z,15.88
2023-01-28T11:20:01.764Z,16.75
2023-01-28T11:22:39.149Z,17.27
2023-01-28T11:25:32.356Z,16.20
2023-01-28T11:28:00.694Z,14.50
2023-01-28T11:30:33.274Z,16.23
2023-01-28T11:33:05.642Z,14.70
2023-01-28T11:35:32.202Z,13.35
2023-01-28T11:38:00.235Z,16.85
2023-01-28T11:40:28.055Z,15.95
2023-01-28T11:42:57.908Z,15.05
2023-01-28T11:45:52.007Z,16.50
2023-01-28T11:48:39.551Z,14.95
2023-01-28T11:51:24.400Z,16.60
2023-01-28T11:54:00.492Z,16.27
2023-01-28T11:56:52.697Z,16.30
2023-01-28T11:59:34.426Z,16.73
2023-01-28T12:02:23.086Z,17.75
2023-01-28T12:05:23.866Z,16.58
2023-01-28T12:08:12.762Z,18.08
2023-01-28T12:10:57.535Z,16.77
2023-01-28T12:13:57.604Z,16.67
2023-01-28T12:16:47.712Z,16.58
2023-01-28T12:19:32.444Z,17.42
2023-01-28T12:22:46.082Z,17.08
2023-01-28T12:25:27.411Z,16.48
2023-01-28T12:28:16.107Z,16.50
2023-01-28T12:30:48.527Z,13.35
2023-01-28T12:33:35.278Z,18.02
2023-01-28T12:36:16.358Z,16.27
2023-01-28T12:39:07.479Z,15.95
2023-01-28T12:41:44.007Z,19.15
2023-01-28T12:44:15.183Z,18.98
2023-01-28T12:46:52.421Z,17.10
2023-01-28T12:49:37.788Z,11.77
2023-01-28T12:52:17.244Z,15.32
2023-01-28T12:55:12.253Z,13.82
2023-01-28T12:57:41.060Z,10.88
2023-01-28T13:00:32.232Z,15.80
2023-01-28T13:03:29.244Z,14.23
2023-01-28T13:06:04.664Z,16.58
2023-01-28T13:08:31.135Z,17.33
2023-01-28T13:10:59.900Z,17.23
2023-01-28T13:13:36.970Z,14.98
2023-01-28T13:16:05.841Z,8.77
2023-01-28T13:18:42.520Z,13.05
2023-01-28T13:21:24.301Z,15.63
2023-01-28T13:24:14.862Z,15.45
2023-01-28T13:26:56.018Z,12.15
2023-01-28T13:29:29.470Z,13.50
2023-01-28T13:31:58.644Z,10.13
2023-01-28T13:34:44.199Z,12.35
2023-01-28T13:37:31.552Z,9.30
2023-01-28T13:40:09.364Z,8.75
2023-01-28T13:45:22.204Z,11.98
2023-01-28T13:47:53.328Z,10.23
2023-01-28T13:50:23.775Z,11.20
2023-01-28T13:53:26.741Z,10.38
2023-01-28T13:55:57.523Z,9.57
2023-01-28T13:58:48.787Z,9.20
2023-01-28T14:01:27.204Z,9.30
2023-01-28T14:04:27.869Z,9.18
2023-01-28T14:07:14.488Z,9.70
2023-01-28T14:09:52.725Z,8.25
2023-01-28T14:12:37.126Z,9.35
2023-01-28T14:15:34.507Z,10.20
2023-01-28T14:18:03.483Z,12.20
2023-01-28T14:20:37.805Z,11.10
2023-01-28T14:23:14.446Z,12.55
2023-01-28T14:26:05.740Z,12.57
2023-01-28T14:28:47.885Z,13.00
2023-01-28T14:31:43.313Z,13.25
2023-01-28T14:34:31.478Z,13.07
2023-01-28T14:37:18.995Z,12.93
2023-01-28T14:39:51.373Z,12.80
2023-01-28T14:42:25.108Z,12.40
2023-01-28T14:45:25.535Z,12.38
2023-01-28T14:48:13.892Z,13.57
2023-01-28T14:50:53.679Z,11.73
2023-01-28T14:53:38.979Z,11.95
2023-01-28T14:56:17.613Z,13.27
2023-01-28T14:58:51.811Z,13.18
2023-01-28T15:01:27.693Z,13.07
2023-01-28T15:03:54.668Z,13.57
2023-01-28T15:09:09.286Z,13.00
2023-01-28T15:11:41.912Z,12.73
2023-01-28T15:14:26.387Z,12.60
2023-01-28T15:16:53.629Z,23.83
2023-01-28T15:19:32.577Z,13.23
2023-01-28T15:22:06.992Z,12.63
2023-01-28T15:24:37.028Z,12.13
2023-01-28T15:27:03.908Z,13.68
2023-01-28T15:29:36.595Z,13.13
2023-01-28T15:32:05.339Z,11.48
2023-01-28T15:34:32.339Z,10.82
2023-01-28T15:37:02.485Z,10.53
2023-01-28T15:42:34.104Z,11.95
2023-01-28T15:45:00.883Z,11.35
2023-01-28T15:53:11.591Z,13.40
2023-01-28T15:55:43.748Z,12.15
2023-01-28T15:58:17.143Z,11.75
2023-01-28T16:00:46.024Z,12.30
2023-01-28T16:03:20.899Z,13.20
2023-01-28T16:14:31.419Z,16.05
2023-01-28T16:17:05.389Z,15.82
2023-01-28T16:19:42.462Z,16.92
2023-01-28T16:22:19.291Z,17.23
2023-01-28T16:24:53.525Z,18.67
2023-01-28T16:27:22.838Z,18.27
2023-01-28T16:29:49.370Z,18.15
2023-01-28T16:32:34.548Z,18.08
2023-01-28T16:35:02.548Z,17.40
2023-01-28T16:39:56.443Z,17.77
2023-01-28T16:42:25.247Z,17.95
2023-01-28T16:44:51.732Z,19.50
2023-01-28T16:47:18.194Z,18.80
2023-01-28T16:49:46.494Z,20.58
2023-01-28T16:52:15.719Z,21.60
2023-01-28T16:54:45.480Z,20.83
2023-01-28T16:57:21.062Z,19.38
2023-01-28T16:59:47.609Z,19.23
2023-01-28T17:02:16.183Z,18.95
2023-01-28T17:04:42.987Z,18.98
2023-01-28T17:07:09.916Z,20.00
2023-01-28T17:09:36.464Z,18.92
2023-01-28T17:12:04.532Z,20.48
2023-01-28T17:14:31.076Z,19.40
2023-01-28T17:16:57.603Z,21.48
2023-01-28T17:19:24.186Z,20.60
2023-01-28T17:21:51.153Z,20.45
2023-01-28T17:24:18.483Z,19.70
2023-01-28T17:26:45.034Z,21.15
2023-01-28T17:29:11.729Z,21.25
2023-01-28T17:31:38.363Z,22.05
2023-01-28T17:34:08.168Z,22.05
2023-01-28T17:36:35.201Z,23.05
2023-01-28T17:39:01.734Z,21.50
2023-01-28T17:41:28.380Z,22.52
2023-01-28T17:43:55.974Z,21.88
2023-01-28T17:46:24.827Z,23.30
2023-01-28T17:48:51.775Z,24.40
2023-01-28T17:51:20.270Z,17.70
2023-01-28T17:53:52.413Z,25.48
2023-01-28T17:56:28.042Z,22.92
2023-01-28T17:59:04.499Z,21.42
2023-01-28T18:01:32.149Z,22.15
2023-01-28T18:03:59.492Z,23.48
2023-01-28T18:06:30.786Z,24.77
2023-01-28T18:08:59.977Z,23.73
2023-01-28T18:11:28.700Z,25.77
2023-01-28T18:13:55.505Z,28.48
2023-01-28T18:16:22.972Z,28.77
2023-01-28T18:18:50.385Z,26.73
2023-01-28T18:21:42.827Z,29.20
2023-01-28T18:24:13.302Z,29.40
2023-01-28T18:26:40.167Z,30.30
2023-01-28T18:29:06.693Z,28.83
2023-01-28T18:31:33.382Z,31.60
2023-01-28T18:33:59.998Z,29.52
2023-01-28T18:36:26.844Z,29.42
2023-01-28T18:38:54.819Z,26.63
2023-01-28T18:43:48.054Z,27.20
2023-01-28T18:46:17.890Z,29.00
2023-01-28T18:48:44.423Z,30.02
2023-01-28T18:51:28.974Z,30.50
2023-01-28T18:58:41.644Z,30.67
2023-01-28T19:01:11.145Z,30.40
2023-01-28T19:03:38.813Z,28.70
2023-01-28T19:06:07.597Z,29.30
2023-01-28T19:08:35.339Z,30.67
2023-01-28T19:11:04.908Z,41.28
2023-01-28T19:13:31.752Z,37.28
2023-01-28T19:16:03.196Z,34.30
2023-01-28T19:18:30.327Z,31.00
2023-01-28T19:21:07.751Z,30.97
2023-01-28T19:23:50.284Z,29.75
2023-01-28T19:26:21.515Z,30.35
2023-01-28T19:28:49.557Z,29.77
2023-01-28T19:31:19.433Z,30.33
2023-01-28T19:33:54.344Z,29.10
2023-01-28T19:36:21.043Z,29.27
2023-01-28T19:38:48.390Z,29.25
2023-01-28T19:41:17.211Z,29.67
2023-01-28T19:43:44.890Z,28.35
2023-01-28T19:46:16.762Z,30.35
2023-01-28T19:48:45.121Z,31.05
2023-01-28T19:51:13.610Z,30.67
2023-01-28T19:53:42.090Z,30.05
2023-01-28T19:56:13.520Z,31.20
2023-01-28T19:58:43.427Z,29.70
2023-01-28T20:01:22.222Z,31.23
2023-01-28T20:03:58.790Z,30.48
2023-01-28T20:06:30.176Z,30.63
2023-01-28T20:09:03.252Z,31.52
2023-01-28T20:11:31.974Z,30.48
2023-01-28T20:14:00.220Z,31.45
2023-01-28T20:16:32.382Z,31.83
2023-01-28T20:19:03.872Z,29.42
2023-01-28T20:21:34.573Z,30.92
2023-01-28T20:24:02.564Z,32.97
2023-01-28T20:26:32.992Z,34.28
2023-01-28T20:29:01.509Z,34.70
2023-01-28T20:31:28.545Z,34.60
2023-01-28T20:33:55.925Z,32.83
2023-01-28T20:36:22.550Z,26.70
2023-01-28T20:38:49.162Z,35.47
2023-01-28T20:41:21.603Z,35.15
2023-01-28T20:43:50.275Z,34.35
2023-01-28T20:46:23.141Z,34.28
2023-01-28T20:48:50.328Z,34.40
2023-01-28T20:51:19.811Z,36.13
2023-01-28T20:53:48.281Z,35.38
2023-01-28T20:56:18.452Z,36.30
2023-01-28T20:58:46.663Z,36.38
2023-01-28T21:01:22.888Z,36.33
2023-01-28T21:03:49.879Z,35.15
2023-01-28T21:06:20.323Z,26.63
2023-01-28T21:08:46.890Z,36.22
2023-01-28T21:11:13.980Z,36.95
2023-01-28T21:13:40.878Z,29.17
2023-01-28T21:16:07.988Z,42.25
2023-01-28T21:18:34.662Z,37.73
2023-01-28T21:21:06.600Z,38.35
2023-01-28T21:23:33.935Z,39.97
2023-01-28T21:26:02.369Z,34.88
2023-01-28T21:28:32.263Z,37.72
2023-01-28T21:44:47.557Z,33.65
2023-01-28T21:47:14.129Z,34.10
2023-01-28T21:49:40.979Z,32.78
2023-01-28T21:52:07.524Z,34.75
2023-01-28T21:54:35.686Z,35.72
2023-01-28T21:57:02.240Z,33.10
2023-01-28T21:59:28.879Z,31.27
2023-01-28T22:02:03.545Z,29.73
2023-01-28T22:04:35.470Z,31.33
2023-01-28T22:07:05.788Z,30.88
2023-01-28T22:09:33.736Z,34.20
2023-01-28T22:12:01.400Z,37.30
2023-01-28T22:14:29.556Z,37.95
2023-01-28T22:16:56.152Z,34.85
2023-01-28T22:19:22.843Z,32.95
2023-01-28T22:21:49.428Z,33.10
2023-01-28T22:24:18.979Z,32.67
2023-01-28T22:26:46.937Z,30.83
2023-01-28T22:31:42.097Z,33.47
2023-01-28T22:34:08.668Z,30.88
2023-01-28T22:36:35.323Z,35.10
2023-01-28T22:39:03.955Z,34.53
2023-01-28T22:41:30.911Z,35.25
2023-01-28T22:43:57.642Z,35.37
2023-01-28T22:46:24.968Z,31.38
2023-01-28T22:48:55.234Z,32.88
2023-01-28T22:51:27.208Z,30.92
2023-01-28T22:53:53.939Z,30.08
2023-01-28T22:56:23.220Z,30.83
2023-01-28T22:58:54.485Z,28.30
2023-01-28T23:01:21.126Z,30.42
2023-01-28T23:03:50.011Z,30.45
2023-01-28T23:06:18.897Z,28.65
2023-01-28T23:08:46.044Z,27.08
2023-01-28T23:11:15.887Z,28.23
2023-01-28T23:14:02.112Z,27.08
2023-01-28T23:16:48.751Z,28.27
2023-01-28T23:19:34.971Z,27.07
2023-01-28T23:22:20.003Z,27.20
2023-01-28T23:24:46.465Z,29.13
2023-01-28T23:27:12.955Z,30.08
2023-01-28T23:29:39.483Z,29.42
2023-01-28T23:32:09.797Z,29.13
2023-01-28T23:34:46.498Z,30.13
2023-01-28T23:37:15.071Z,27.52
2023-01-28T23:39:42.390Z,27.92
2023-01-28T23:42:14.920Z,28.92
2023-01-28T23:44:41.795Z,29.20
2023-01-28T23:47:08.628Z,27.42
2023-01-28T23:49:35.456Z,27.02
2023-01-28T23:52:03.964Z,28.63
2023-01-28T23:54:30.955Z,27.65
2023-01-28T23:56:58.722Z,34.30
2023-01-28T23:59:25.285Z,29.30
